Time;durP1;ratioP1;P1;durP2;ratioP2;P2;SDS_P1;SDS_P2;PMS_P1;PMS_P2;Temp;Humidity;BMP_temperature;BMP_pressure;BME280_temperature;BME280_humidity;BME280_pressure;Samples;Min_cycle;Max_cycle;Signal;HPM_P1;HPM_P2
2022/07/29 00:01:53;;;;;;;0.40;0.40;;;21.20;56.60;;;21.74;41.64;94960.13;5014511;28;20237;-78
2022/07/29 00:04:20;;;;;;;0.40;0.40;;;21.20;56.70;;;21.73;41.84;94964.63;5014711;28;20714;-78
2022/07/29 00:06:48;;;;;;;0.40;0.40;;;21.20;56.80;;;21.67;41.75;94955.00;5014532;28;20608;-78
2022/07/29 00:09:15;;;;;;;0.40;0.40;;;21.20;56.90;;;21.62;42.34;94946.16;5014570;28;20297;-78
2022/07/29 00:11:43;;;;;;;0.40;0.40;;;21.10;56.90;;;21.65;41.93;94954.44;5030916;28;20217;-78
2022/07/29 00:14:10;;;;;;;0.60;0.60;;;21.10;57.10;;;21.62;42.05;94944.31;5014648;28;20193;-78
2022/07/29 00:16:37;;;;;;;0.40;0.40;;;21.10;57.20;;;21.63;41.81;94950.44;5031987;28;20232;-78
2022/07/29 00:19:05;;;;;;;0.38;0.38;;;21.10;57.20;;;21.57;42.13;94944.31;5014523;28;20286;-78
2022/07/29 00:21:34;;;;;;;0.40;0.40;;;21.10;57.30;;;21.61;42.12;94955.25;5014603;28;20591;-78
2022/07/29 00:24:01;;;;;;;0.40;0.40;;;21.10;57.40;;;21.62;42.50;94951.50;5014423;28;20200;-78
2022/07/29 00:26:31;;;;;;;0.35;0.35;;;21.10;57.40;;;21.62;42.14;94949.66;5014131;28;20246;-78
2022/07/29 00:29:04;;;;;;;0.32;0.32;;;21.00;57.30;;;21.61;42.45;94949.91;5030905;28;20184;-78
2022/07/29 00:31:51;;;;;;;0.40;0.40;;;21.00;57.70;;;21.56;42.18;94937.31;5016859;28;20248;-78
2022/07/29 00:37:04;;;;;;;0.50;0.50;;;21.00;57.30;;;21.50;42.60;94923.16;5016832;28;20230;-78
2022/07/29 00:39:33;;;;;;;0.40;0.40;;;21.00;57.40;;;21.50;42.64;94925.03;5014548;28;20579;-78
2022/07/29 00:42:04;;;;;;;0.40;0.40;;;21.00;57.70;;;21.47;42.73;94920.19;5014345;28;20314;-78
2022/07/29 00:44:36;;;;;;;0.40;0.40;;;21.00;57.80;;;21.44;42.64;94930.31;5014301;28;20200;-78
2022/07/29 00:47:03;;;;;;;0.40;0.40;;;20.90;57.50;;;21.42;42.71;94931.63;5014299;28;20247;-78
2022/07/29 00:49:30;;;;;;;0.30;0.30;;;20.90;57.80;;;21.39;42.80;94922.28;5014205;28;20198;-78
2022/07/29 00:52:00;;;;;;;0.40;0.40;;;20.90;57.90;;;21.38;42.48;94922.56;5014263;28;20216;-78
2022/07/29 00:54:28;;;;;;;0.40;0.40;;;20.90;58.00;;;21.37;43.29;94923.63;5030617;28;20201;-78
2022/07/29 00:56:59;;;;;;;0.50;0.50;;;20.90;58.10;;;21.35;43.00;94923.88;5014416;28;20209;-78
2022/07/29 00:59:29;;;;;;;0.40;0.40;;;20.90;58.50;;;21.36;42.85;94927.34;5014214;28;20325;-78
2022/07/29 01:02:03;;;;;;;0.55;0.55;;;20.90;58.60;;;21.33;42.98;94926.00;5030553;28;20219;-78
2022/07/29 01:04:31;;;;;;;0.35;0.35;;;20.90;58.50;;;21.32;43.41;94921.72;5032135;28;20689;-78
2022/07/29 01:07:01;;;;;;;0.40;0.40;;;20.80;58.40;;;21.32;43.48;94920.94;5034056;28;20234;-78
2022/07/29 01:09:31;;;;;;;0.40;0.40;;;20.80;58.50;;;21.29;43.70;94914.25;5017852;28;20570;-78
2022/07/29 01:12:17;;;;;;;0.40;0.40;;;20.80;58.40;;;21.34;43.12;94916.16;5004993;28;20635;-78
2022/07/29 01:14:46;;;;;;;0.30;0.30;;;20.80;58.50;;;21.35;43.07;94923.88;5017650;28;20196;-77
2022/07/29 01:17:27;;;;;;;0.47;0.47;;;20.80;58.70;;;21.37;43.42;94924.44;5017330;28;20232;-79
2022/07/29 01:19:57;;;;;;;0.40;0.40;;;20.80;59.10;;;21.34;43.11;94916.94;5017267;28;20680;-78
2022/07/29 01:22:51;;;;;;;0.40;0.40;;;20.80;58.50;;;21.32;43.54;94919.06;5034000;28;20660;-78
2022/07/29 01:25:38;;;;;;;0.40;0.40;;;20.80;58.60;;;21.30;43.27;94915.03;5033784;28;20199;-78
2022/07/29 01:28:30;;;;;;;0.30;0.30;;;20.90;58.60;;;21.23;43.17;94918.75;5033876;28;20254;-78
2022/07/29 01:31:00;;;;;;;0.40;0.40;;;20.80;58.80;;;21.20;43.74;94910.47;5034787;28;20299;-78
2022/07/29 01:33:49;;;;;;;0.35;0.35;;;20.70;58.50;;;21.17;43.55;94919.78;5017465;28;20728;-79
2022/07/29 01:36:50;;;;;;;0.40;0.40;;;20.70;58.90;;;21.08;43.38;94916.81;5019546;28;20596;-78
2022/07/29 01:39:32;;;;;;;0.40;0.40;;;20.70;59.00;;;21.03;43.58;94919.44;5017088;28;20206;-78
2022/07/29 01:42:35;;;;;;;0.40;0.40;;;20.60;60.20;;;20.91;43.28;94914.31;5017014;28;20220;-78
2022/07/29 01:45:21;;;;;;;0.43;0.43;;;20.50;58.70;;;20.88;43.75;94911.34;5016175;28;20721;-78
2022/07/29 01:48:30;;;;;;;0.40;0.40;;;20.50;59.40;;;20.75;44.11;94913.41;5016983;28;20219;-78
2022/07/29 01:51:06;;;;;;;0.40;0.40;;;20.40;59.30;;;20.72;44.12;94910.44;5016150;28;20310;-78
2022/07/29 01:53:46;;;;;;;0.40;0.40;;;20.30;59.50;;;20.66;44.15;94911.44;5017039;28;20199;-78
2022/07/29 01:56:17;;;;;;;0.40;0.40;;;20.20;59.40;;;20.61;44.26;94909.53;5033184;28;20314;-78
2022/07/29 01:58:46;;;;;;;0.40;0.40;;;20.20;59.40;;;20.54;43.92;94903.59;5033015;28;20231;-77
2022/07/29 02:01:16;;;;;;;0.40;0.40;;;20.10;59.60;;;20.48;44.43;94900.09;5033274;28;20634;-78
2022/07/29 02:03:45;;;;;;;0.40;0.40;;;20.00;59.60;;;20.45;44.52;94905.94;5033241;28;20530;-78
2022/07/29 02:06:16;;;;;;;0.40;0.40;;;20.00;59.60;;;20.38;44.28;94911.47;5016442;28;20690;-78
2022/07/29 02:08:45;;;;;;;0.50;0.50;;;19.90;59.60;;;;;;5033185;28;20192;-78
2022/07/29 02:11:12;;;;;;;0.40;0.40;;;19.90;59.80;;;20.26;44.06;94909.00;5032794;28;20213;-78
2022/07/29 02:13:41;;;;;;;0.40;0.40;;;19.80;59.70;;;20.24;44.59;94912.97;5016345;28;20200;-78
2022/07/29 02:16:09;;;;;;;0.60;0.60;;;19.80;59.80;;;20.15;44.45;94912.59;5015749;28;20216;-78
2022/07/29 02:18:39;;;;;;;0.40;0.40;;;19.70;60.00;;;20.13;44.62;94920.84;5016473;28;20295;-78
2022/07/29 02:21:07;;;;;;;0.40;0.40;;;19.70;60.10;;;20.11;44.46;94928.28;5016546;28;20212;-77
2022/07/29 02:23:43;;;;;;;0.40;0.40;;;19.70;60.10;;;20.06;45.16;94941.53;5032934;28;20195;-78
2022/07/29 02:26:19;;;;;;;0.60;0.60;;;19.60;60.20;;;20.02;44.91;94945.78;5032556;28;20670;-78
2022/07/29 02:28:50;;;;;;;0.40;0.40;;;19.60;60.40;;;19.97;45.43;94937.75;5000263;28;20204;-77
2022/07/29 02:31:24;;;;;;;0.40;0.40;;;19.60;60.50;;;19.97;45.76;94937.75;5016203;28;20618;-78
2022/07/29 02:33:53;;;;;;;0.40;0.40;;;19.60;60.90;;;19.95;45.91;94939.84;5016133;28;20258;-77
2022/07/29 02:36:23;;;;;;;0.40;0.40;;;19.50;60.80;;;19.89;45.92;94935.50;4999723;28;20208;-77
2022/07/29 02:38:51;;;;;;;0.47;0.47;;;19.50;61.00;;;19.87;46.25;94937.63;5016048;28;20652;-78
2022/07/29 02:41:36;;;;;;;0.43;0.43;;;19.50;60.80;;;19.80;46.01;94940.44;5015982;28;20223;-79
2022/07/29 02:44:10;;;;;;;0.40;0.40;;;19.50;61.10;;;19.78;46.23;94934.56;5015941;28;20196;-78
2022/07/29 02:46:51;;;;;;;0.50;0.50;;;19.50;61.30;;;19.76;46.31;94937.47;5015550;28;20231;-78
2022/07/29 02:49:46;;;;;;;0.40;0.40;;;19.40;61.50;;;19.74;46.55;94934.25;5015830;28;20200;-78
2022/07/29 02:52:30;;;;;;;0.40;0.40;;;19.40;61.60;;;19.74;46.69;94933.44;5032118;28;20289;-78
2022/07/29 02:55:08;;;;;;;0.40;0.40;;;19.40;61.50;;;19.73;46.25;94919.34;5015667;28;20608;-78
2022/07/29 02:57:44;;;;;;;0.45;0.45;;;19.40;61.20;;;19.70;46.33;94919.84;5015158;28;20551;-78
2022/07/29 03:00:27;;;;;;;0.40;0.40;;;19.40;61.80;;;19.69;46.26;94923.56;5017068;28;20180;-78
2022/07/29 03:02:59;;;;;;;0.50;0.50;;;19.40;61.60;;;19.68;46.76;94922.75;5015588;28;20540;-78
2022/07/29 03:05:27;;;;;;;0.43;0.43;;;19.30;61.50;;;19.67;46.33;94925.66;5031884;28;20188;-78
2022/07/29 03:08:05;;;;;;;0.47;0.47;;;19.30;61.50;;;19.64;46.49;94923.47;4999228;28;20682;-78
2022/07/29 03:10:34;;;;;;;0.40;0.40;;;19.30;61.80;;;19.61;46.35;94922.13;5031404;28;20729;-78
2022/07/29 03:13:01;;;;;;;0.50;0.50;;;19.20;61.40;;;19.59;46.92;94923.44;4999216;28;20201;-78
2022/07/29 03:15:29;;;;;;;0.40;0.40;;;19.20;61.50;;;19.60;46.83;94928.50;5015352;28;20196;-78
2022/07/29 03:17:58;;;;;;;0.50;0.50;;;19.20;61.50;;;19.61;46.63;94927.44;5015482;28;20188;-78
2022/07/29 03:20:26;;;;;;;0.50;0.50;;;19.20;61.50;;;19.64;46.79;94918.16;5015271;28;20291;-78
2022/07/29 03:22:53;;;;;;;0.40;0.40;;;19.20;61.70;;;19.68;46.79;94912.09;5031731;28;20253;-78
2022/07/29 03:25:21;;;;;;;0.35;0.35;;;19.20;61.60;;;19.73;46.91;94923.88;5031523;28;20199;-78
2022/07/29 03:27:49;;;;;;;0.40;0.40;;;19.30;61.70;;;19.74;46.82;94920.94;5014306;28;20228;-79
2022/07/29 03:30:16;;;;;;;0.50;0.50;;;19.30;61.80;;;19.80;46.53;94929.81;5032195;28;20214;-78
2022/07/29 03:32:52;;;;;;;0.40;0.40;;;19.30;61.70;;;19.83;46.93;94927.47;5015333;28;20258;-78
2022/07/29 03:35:22;;;;;;;0.40;0.40;;;19.40;61.90;;;19.84;46.51;94918.41;5016974;28;20209;-78
2022/07/29 03:37:49;;;;;;;0.40;0.40;;;19.40;61.90;;;19.91;46.76;94918.25;4995579;28;20224;-78
2022/07/29 03:40:35;;;;;;;0.40;0.40;;;19.40;61.90;;;19.92;46.70;94919.84;5011483;28;20201;-78
2022/07/29 03:43:03;;;;;;;0.45;0.45;;;19.50;62.40;;;19.94;46.93;94916.94;5011791;28;20199;-77
2022/07/29 03:45:32;;;;;;;0.40;0.40;;;19.50;62.10;;;19.93;47.15;94916.13;5011506;28;20192;-78
2022/07/29 03:48:08;;;;;;;0.40;0.40;;;19.50;62.10;;;19.94;46.95;94919.59;4995304;28;20287;-78
2022/07/29 03:50:36;;;;;;;0.50;0.50;;;19.50;62.60;;;19.92;46.95;94914.53;5011352;28;20305;-78
2022/07/29 03:53:04;;;;;;;0.50;0.50;;;19.50;61.90;;;19.91;46.79;94909.44;4995438;28;20196;-78
2022/07/29 03:55:40;;;;;;;0.40;0.40;;;19.50;62.00;;;19.93;46.93;94907.34;4995385;28;20204;-78
2022/07/29 03:58:08;;;;;;;0.40;0.40;;;19.50;62.30;;;19.89;47.28;94901.69;5011542;28;20208;-77
2022/07/29 04:00:37;;;;;;;0.40;0.40;;;19.50;62.10;;;19.88;47.07;94909.94;5011314;28;20696;-77
2022/07/29 04:03:05;;;;;;;0.40;0.40;;;19.50;62.20;;;19.89;47.17;94903.56;5012813;28;20533;-77
2022/07/29 04:05:38;;;;;;;0.40;0.40;;;19.50;62.20;;;19.86;47.46;94901.41;5011218;28;20769;-76
2022/07/29 04:08:05;;;;;;;0.40;0.40;;;19.40;62.10;;;19.87;47.20;94909.13;4979019;28;20698;-78
2022/07/29 04:10:32;;;;;;;0.40;0.40;;;19.40;62.10;;;19.86;47.18;94902.22;5010800;28;20224;-79
2022/07/29 04:13:02;;;;;;;0.43;0.43;;;19.40;62.30;;;19.87;47.07;94911.00;5011376;28;20576;-78
2022/07/29 04:15:29;;;;;;;0.50;0.50;;;19.40;62.30;;;19.90;46.90;94907.84;5011482;28;20196;-78
2022/07/29 04:17:58;;;;;;;0.40;0.40;;;19.50;62.30;;;19.90;47.40;94913.16;4995547;28;20299;-78
2022/07/29 04:20:26;;;;;;;0.50;0.50;;;19.50;62.60;;;19.96;47.35;94918.28;4994953;28;20204;-78
2022/07/29 04:22:54;;;;;;;0.43;0.43;;;19.50;62.60;;;19.99;47.63;94911.66;5011166;28;20208;-78
2022/07/29 04:25:21;;;;;;;0.40;0.40;;;19.50;62.60;;;20.08;47.20;94910.16;5010903;28;20220;-78
2022/07/29 04:28:02;;;;;;;0.40;0.40;;;19.60;62.80;;;20.13;47.75;94909.41;5010466;28;20224;-77
2022/07/29 04:30:31;;;;;;;0.50;0.50;;;19.70;63.00;;;20.23;47.76;94912.16;4996900;28;20201;-76
2022/07/29 04:33:00;;;;;;;0.40;0.40;;;19.80;63.10;;;20.33;47.91;94911.44;5011098;28;20185;-78
2022/07/29 04:35:31;;;;;;;0.40;0.40;;;19.90;63.00;;;20.45;47.53;94912.06;4994887;28;20232;-78
2022/07/29 04:38:06;;;;;;;0.40;0.40;;;20.00;63.00;;;20.58;47.41;94907.34;4995785;28;20292;-78
2022/07/29 04:40:41;;;;;;;0.32;0.32;;;20.00;62.70;;;20.66;47.48;94898.91;5013723;28;20236;-78
2022/07/29 04:43:09;;;;;;;0.50;0.50;;;20.20;63.10;;;20.81;47.90;94900.09;5014941;28;20200;-78
2022/07/29 04:45:38;;;;;;;0.30;0.30;;;20.30;62.80;;;20.93;47.31;94906.03;4998811;28;20205;-78
2022/07/29 04:48:06;;;;;;;0.30;0.30;;;20.40;62.60;;;21.04;47.41;94909.56;4982332;28;20235;-77
2022/07/29 04:50:33;;;;;;;0.43;0.43;;;20.50;62.70;;;21.13;47.75;94910.72;4998355;28;20242;-78
2022/07/29 04:53:00;;;;;;;0.50;0.50;;;20.60;62.50;;;21.24;47.42;94904.34;4998621;28;20197;-78
2022/07/29 04:55:27;;;;;;;0.38;0.38;;;20.70;62.30;;;21.32;47.14;94907.59;5014577;28;20198;-78
2022/07/29 04:57:55;;;;;;;0.40;0.40;;;20.80;62.30;;;21.41;47.09;94912.16;4997532;28;20208;-78
2022/07/29 05:00:23;;;;;;;0.47;0.47;;;20.90;62.50;;;21.52;47.05;94920.19;5014456;28;20223;-78
2022/07/29 05:02:59;;;;;;;0.32;0.32;;;21.00;62.30;;;21.58;46.90;94908.50;5014485;28;20201;-77
2022/07/29 05:05:27;;;;;;;0.35;0.35;;;21.10;62.30;;;21.65;47.05;94913.63;5014363;28;20732;-77
2022/07/29 05:07:55;;;;;;;0.40;0.40;;;21.20;62.50;;;21.71;47.13;94912.56;5014369;28;20226;-77
2022/07/29 05:10:22;;;;;;;0.40;0.40;;;21.30;62.30;;;21.78;47.03;94907.00;5014362;28;20199;-78
2022/07/29 05:12:50;;;;;;;0.40;0.40;;;21.30;62.20;;;21.83;46.84;94912.34;4997919;28;20202;-78
2022/07/29 05:15:17;;;;;;;0.35;0.35;;;21.40;62.20;;;21.91;46.94;94920.66;4981119;28;20206;-78
2022/07/29 05:17:45;;;;;;;0.30;0.30;;;21.50;62.10;;;21.98;46.88;94917.72;5014163;28;20203;-78
2022/07/29 05:20:12;;;;;;;0.35;0.35;;;21.50;62.20;;;22.09;46.93;94921.22;5014008;28;20205;-77
2022/07/29 05:22:39;;;;;;;0.30;0.30;;;21.60;62.20;;;22.17;46.66;94917.25;4997929;28;20238;-78
2022/07/29 05:25:08;;;;;;;0.40;0.40;;;21.70;62.00;;;22.25;46.76;94921.25;5014053;28;20197;-78
2022/07/29 05:27:36;;;;;;;0.40;0.40;;;21.80;61.90;;;22.30;46.53;94919.38;4997913;28;20236;-78
2022/07/29 05:30:04;;;;;;;0.40;0.40;;;21.90;61.90;;;22.40;46.78;94923.97;5014024;28;20254;-78
2022/07/29 05:32:32;;;;;;;0.30;0.30;;;22.00;61.90;;;22.49;46.30;94926.91;5013642;28;20220;-78
2022/07/29 05:34:59;;;;;;;0.45;0.45;;;22.00;61.80;;;22.57;46.10;94914.88;4997769;28;20209;-78
2022/07/29 05:37:26;;;;;;;0.50;0.50;;;22.10;61.70;;;22.64;46.35;94908.22;4997546;28;20311;-77
2022/07/29 05:39:54;;;;;;;0.40;0.40;;;22.20;61.80;;;22.75;46.29;94913.53;5014773;28;20196;-78
2022/07/29 05:42:25;;;;;;;0.43;0.43;;;22.30;61.80;;;22.82;46.41;94922.09;4997885;28;20229;-78
2022/07/29 05:44:53;;;;;;;0.50;0.50;;;22.40;61.60;;;22.90;46.10;94918.88;5013504;28;20204;-79
2022/07/29 05:47:21;;;;;;;0.40;0.40;;;22.50;61.50;;;22.97;46.09;94930.09;4997315;28;20319;-78
2022/07/29 05:49:48;;;;;;;0.38;0.38;;;22.50;61.50;;;23.05;46.12;94936.75;4997063;28;20206;-78
2022/07/29 05:52:16;;;;;;;0.35;0.35;;;22.60;61.40;;;23.12;45.89;94931.13;4996567;28;20557;-78
2022/07/29 05:54:43;;;;;;;0.30;0.30;;;22.70;62.30;;;23.17;45.72;94941.88;4981078;28;20589;-78
2022/07/29 05:57:23;;;;;;;0.30;0.30;;;22.80;61.30;;;23.22;45.82;94949.06;5029751;28;20648;-78
2022/07/29 05:59:51;;;;;;;0.40;0.40;;;22.80;61.10;;;23.25;45.36;94929.81;5013339;28;20215;-78
2022/07/29 06:02:19;;;;;;;0.32;0.32;;;22.90;61.10;;;23.31;45.51;94942.09;5013180;28;20227;-78
2022/07/29 06:04:46;;;;;;;0.35;0.35;;;22.90;61.00;;;23.34;45.17;94934.31;5013358;28;20192;-78
2022/07/29 06:07:13;;;;;;;0.30;0.30;;;23.00;60.90;;;23.39;45.65;94943.41;5013276;28;20714;-77
2022/07/29 06:09:41;;;;;;;0.38;0.38;;;23.00;60.90;;;23.42;45.33;94932.16;4996832;28;20311;-78
2022/07/29 06:12:09;;;;;;;0.40;0.40;;;23.00;60.70;;;23.43;45.35;94937.22;5013110;28;20221;-79
2022/07/29 06:14:37;;;;;;;0.30;0.30;;;23.10;60.70;;;23.46;45.26;94927.84;4996791;28;20200;-78
2022/07/29 06:17:05;;;;;;;0.30;0.30;;;23.10;60.80;;;23.50;45.67;94931.59;5013062;28;20896;-78
2022/07/29 06:19:36;;;;;;;0.30;0.30;;;23.10;61.70;;;23.53;45.45;94933.72;5013026;28;20247;-78
2022/07/29 06:22:03;;;;;;;0.30;0.30;;;23.20;60.90;;;23.58;45.29;94923.00;5012830;28;20221;-78
2022/07/29 06:24:30;;;;;;;0.30;0.30;;;23.30;61.10;;;23.70;45.53;94932.59;5012912;28;20189;-78
2022/07/29 06:26:58;;;;;;;0.30;0.30;;;23.30;61.10;;;23.79;45.32;94945.16;5012737;28;20208;-78
2022/07/29 06:29:25;;;;;;;0.40;0.40;;;23.40;61.00;;;23.88;45.20;94939.22;5013160;28;20216;-78
2022/07/29 06:31:52;;;;;;;0.30;0.30;;;23.50;60.80;;;23.94;45.23;94941.63;4996331;28;20709;-78
2022/07/29 06:34:19;;;;;;;0.45;0.45;;;23.60;60.70;;;24.08;45.24;94951.72;5012795;28;20205;-78
2022/07/29 06:36:47;;;;;;;0.38;0.38;;;23.70;60.60;;;24.12;44.71;94945.53;5012713;28;20227;-78
2022/07/29 06:39:15;;;;;;;0.50;0.50;;;23.80;60.60;;;24.22;44.90;94957.28;4996570;28;20275;-78
2022/07/29 06:41:50;;;;;;;0.30;0.30;;;23.90;60.50;;;24.28;44.53;94954.28;5012423;28;20228;-78
2022/07/29 06:44:18;;;;;;;0.32;0.32;;;24.00;60.30;;;24.35;44.80;94947.81;4996266;28;20197;-78
2022/07/29 06:46:48;;;;;;;0.30;0.30;;;24.00;60.30;;;24.39;44.62;94949.66;4999594;28;20218;-78
2022/07/29 06:49:16;;;;;;;0.30;0.30;;;24.10;60.30;;;24.43;44.44;94942.66;5005541;28;20291;-78
2022/07/29 06:51:43;;;;;;;0.30;0.30;;;24.10;60.20;;;24.47;44.31;94940.22;5025164;28;20250;-78
2022/07/29 06:54:10;;;;;;;0.30;0.30;;;24.20;60.10;;;24.46;44.34;94943.97;5021324;28;20202;-78
2022/07/29 06:56:40;;;;;;;0.30;0.30;;;24.20;60.00;;;24.48;43.87;94954.44;5007556;28;20234;-78
2022/07/29 06:59:10;;;;;;;0.40;0.40;;;24.20;59.80;;;24.46;44.12;94942.13;5021020;28;20264;-78
2022/07/29 07:01:40;;;;;;;0.30;0.30;;;24.20;59.70;;;24.49;44.20;94937.28;5020884;28;20219;-78
2022/07/29 07:04:08;;;;;;;0.40;0.40;;;24.20;59.80;;;24.47;43.98;94945.59;5021253;28;20209;-78
2022/07/29 07:06:36;;;;;;;0.30;0.30;;;24.20;59.80;;;24.48;44.34;94941.03;5023282;28;20720;-78
2022/07/29 07:09:04;;;;;;;0.50;0.50;;;24.20;59.80;;;24.49;44.04;94937.28;5015418;28;20216;-77
2022/07/29 07:11:31;;;;;;;0.50;0.50;;;24.20;59.90;;;24.48;44.15;94949.88;5011940;28;20209;-78
2022/07/29 07:13:59;;;;;;;0.30;0.30;;;24.20;59.80;;;24.50;44.27;94952.25;5013235;28;20296;-78
2022/07/29 07:16:40;;;;;;;0.35;0.35;;;24.20;59.80;;;24.48;44.44;94949.09;4997460;28;20790;-77
2022/07/29 07:19:07;;;;;;;0.35;0.35;;;24.20;59.80;;;24.49;44.22;94946.13;4995772;28;20556;-78
2022/07/29 07:21:35;;;;;;;0.40;0.40;;;24.20;59.80;;;24.48;43.95;94941.81;4995359;28;20686;-78
2022/07/29 07:24:02;;;;;;;0.40;0.40;;;24.20;59.70;;;24.50;44.11;94939.69;5011786;28;20215;-78
2022/07/29 07:26:30;;;;;;;0.30;0.30;;;24.20;59.90;;;24.50;44.64;94944.22;5011661;28;20216;-78
2022/07/29 07:29:00;;;;;;;0.40;0.40;;;24.20;59.90;;;24.50;44.33;94942.34;5011683;28;20216;-78
2022/07/29 07:31:27;;;;;;;0.30;0.30;;;24.20;60.00;;;24.50;44.32;94942.34;5011748;28;20725;-78
2022/07/29 07:33:54;;;;;;;0.30;0.30;;;24.20;59.90;;;24.50;44.39;94941.53;4995365;28;20212;-77
2022/07/29 07:36:23;;;;;;;0.30;0.30;;;24.20;60.10;;;24.54;44.29;94947.97;4995385;28;20587;-78
2022/07/29 07:38:50;;;;;;;0.43;0.43;;;24.20;60.00;;;24.57;44.45;94950.06;5011893;28;20718;-77
2022/07/29 07:41:17;;;;;;;0.35;0.35;;;24.30;60.10;;;24.59;44.35;94950.59;5027921;28;20319;-78
2022/07/29 07:43:44;;;;;;;0.40;0.40;;;24.30;60.10;;;24.65;44.38;94951.38;4979664;28;20577;-77
2022/07/29 07:46:12;;;;;;;0.30;0.30;;;24.30;60.10;;;24.71;44.36;94955.66;5011562;28;20315;-77
2022/07/29 07:48:39;;;;;;;0.30;0.30;;;24.40;60.10;;;24.75;44.46;94951.31;5011665;28;20220;-77
2022/07/29 07:51:07;;;;;;;0.20;0.20;;;24.40;60.10;;;24.77;44.01;94955.31;4994596;28;20285;-78
2022/07/29 07:53:34;;;;;;;0.40;0.40;;;24.50;60.10;;;24.82;44.40;94957.16;5011715;28;20192;-78
2022/07/29 07:56:02;;;;;;;0.30;0.30;;;24.50;60.00;;;24.86;43.99;94960.06;4994750;28;20316;-78
2022/07/29 07:58:39;;;;;;;0.40;0.40;;;24.50;59.90;;;24.89;43.99;94956.81;4981793;28;20205;-78
2022/07/29 08:01:06;;;;;;;0.35;0.35;;;24.60;60.10;;;24.90;44.21;94953.88;4995041;28;20692;-78
2022/07/29 08:03:34;;;;;;;0.30;0.30;;;24.60;60.30;;;24.93;44.03;94960.56;4995247;28;20203;-77
2022/07/29 08:06:02;;;;;;;0.22;0.22;;;24.60;59.70;;;24.96;44.38;94957.28;4996320;28;20218;-78
2022/07/29 08:08:30;;;;;;;0.30;0.30;;;24.70;59.80;;;25.00;44.20;94965.56;5014760;28;20629;-78
2022/07/29 08:10:58;;;;;;;0.50;0.50;;;24.80;59.70;;;25.05;44.05;94970.91;5031128;28;20223;-78
2022/07/29 08:13:31;;;;;;;0.40;0.40;;;24.80;59.80;;;25.09;44.03;94975.41;5031431;28;20223;-78
2022/07/29 08:16:11;;;;;;;0.30;0.30;;;24.80;59.80;;;25.15;44.09;94978.88;5035168;28;20213;-78
2022/07/29 08:18:41;;;;;;;0.25;0.25;;;24.90;59.90;;;25.22;44.02;94976.66;5018475;28;20282;-78
2022/07/29 08:21:08;;;;;;;0.40;0.40;;;24.90;59.70;;;25.28;44.18;94971.22;5034862;28;20315;-78
2022/07/29 08:23:38;;;;;;;0.30;0.30;;;25.00;59.80;;;25.32;43.86;94975.75;5018649;28;20198;-77
2022/07/29 08:26:14;;;;;;;0.30;0.30;;;25.00;59.80;;;25.38;43.71;94980.00;5020005;28;20208;-79
2022/07/29 08:28:50;;;;;;;0.35;0.35;;;25.00;59.70;;;25.42;43.60;94974.88;5018667;28;20224;-78
2022/07/29 08:31:17;;;;;;;0.30;0.30;;;25.10;59.70;;;25.41;44.03;94967.91;5019157;28;20243;-76
2022/07/29 08:33:45;;;;;;;0.28;0.28;;;25.10;59.70;;;25.47;43.81;94979.41;5018442;28;20221;-79
2022/07/29 08:36:13;;;;;;;0.40;0.40;;;25.10;59.40;;;25.45;43.55;94977.00;5034612;28;20256;-78
2022/07/29 08:38:40;;;;;;;0.30;0.30;;;25.20;59.40;;;25.47;43.85;94972.13;5018524;28;20583;-79
2022/07/29 08:41:07;;;;;;;0.40;0.40;;;25.20;59.40;;;25.50;43.73;94976.13;5001945;28;20240;-79
2022/07/29 08:43:37;;;;;;;0.30;0.30;;;25.20;59.60;;;25.51;43.88;94975.88;5018318;28;20296;-78
2022/07/29 08:46:04;;;;;;;0.30;0.30;;;25.20;59.40;;;25.51;43.61;94983.09;5018616;28;20316;-78
2022/07/29 08:48:32;;;;;;;0.30;0.30;;;25.20;59.50;;;25.53;43.75;94984.41;5034607;28;20213;-78
2022/07/29 08:51:00;;;;;;;0.30;0.30;;;25.20;59.50;;;25.53;43.65;94987.09;5001774;28;20226;-78
2022/07/29 08:53:28;;;;;;;0.30;0.30;;;25.30;59.50;;;25.53;43.58;94980.94;5001906;28;20287;-79
2022/07/29 08:55:57;;;;;;;0.30;0.30;;;25.20;59.30;;;25.53;43.66;94980.94;5034297;28;20240;-78
2022/07/29 08:58:26;;;;;;;0.40;0.40;;;25.30;59.30;;;25.55;43.62;94979.56;5018141;28;20204;-78
2022/07/29 09:00:55;;;;;;;0.30;0.30;;;25.30;59.30;;;25.56;43.37;94983.84;5028137;28;20227;-78
2022/07/29 09:03:30;;;;;;;0.25;0.25;;;25.30;59.10;;;25.55;43.68;94986.84;5018383;28;20208;-78
2022/07/29 09:05:59;;;;;;;0.50;0.50;;;25.30;59.30;;;25.55;43.74;94987.63;5034115;28;20225;-78
2022/07/29 09:08:27;;;;;;;0.20;0.20;;;25.30;59.40;;;25.58;43.75;94991.63;5017517;28;20319;-78
2022/07/29 09:10:58;;;;;;;0.30;0.30;;;25.30;59.40;;;25.59;43.66;94990.53;5017539;28;20229;-78
2022/07/29 09:13:26;;;;;;;0.30;0.30;;;25.30;59.40;;;25.62;43.81;94989.97;5035748;28;20259;-78
2022/07/29 09:15:53;;;;;;;0.40;0.40;;;25.30;59.40;;;25.67;44.26;94991.78;5033899;28;20571;-78
2022/07/29 09:18:36;;;;;;;0.50;0.50;;;25.40;59.50;;;25.72;43.54;94992.53;5034110;28;20205;-78
2022/07/29 09:24:10;;;;;;;0.30;0.30;;;25.50;59.50;;;25.87;43.47;94999.63;5036331;28;20209;-78
2022/07/29 09:26:45;;;;;;;0.30;0.30;;;25.50;59.30;;;25.92;43.35;94985.31;5033383;28;20308;-78
2022/07/29 09:29:16;;;;;;;0.30;0.30;;;25.60;59.20;;;26.05;43.61;94997.28;5001021;28;20230;-78
2022/07/29 09:31:47;;;;;;;0.30;0.30;;;25.70;59.20;;;26.14;43.34;94992.09;5033700;28;20211;-77
2022/07/29 09:34:21;;;;;;;0.30;0.30;;;25.80;59.10;;;26.19;43.51;94990.09;5017081;28;20246;-77
2022/07/29 09:36:50;;;;;;;0.20;0.20;;;25.90;58.80;;;26.27;43.27;94994.06;5016954;28;20254;-78
2022/07/29 09:39:35;;;;;;;0.28;0.28;;;26.00;58.50;;;26.36;43.13;94992.31;5017119;28;20256;-77
2022/07/29 09:42:05;;;;;;;0.30;0.30;;;26.10;58.50;;;26.47;43.39;94986.78;5033643;28;20218;-77
2022/07/29 09:44:46;;;;;;;0.30;0.30;;;26.20;58.60;;;26.61;43.15;94989.53;5033825;28;20213;-77
2022/07/29 09:47:14;;;;;;;0.30;0.30;;;26.30;58.50;;;26.75;42.37;94989.66;5017169;28;20243;-78
2022/07/29 09:50:00;;;;;;;0.30;0.30;;;26.40;58.30;;;26.89;42.88;94987.81;5033345;28;20743;-78
2022/07/29 09:52:29;;;;;;;0.28;0.28;;;26.60;58.00;;;27.00;42.38;94983.03;5033789;28;20548;-77
2022/07/29 09:55:07;;;;;;;0.30;0.30;;;26.70;57.90;;;27.09;42.60;94986.66;5033461;28;20639;-77
2022/07/29 09:57:36;;;;;;;0.20;0.20;;;26.80;57.90;;;27.20;42.76;94976.50;5016921;28;20215;-77
2022/07/29 10:00:07;;;;;;;0.30;0.30;;;26.90;57.80;;;27.29;42.54;94973.94;5016961;28;20193;-78
2022/07/29 10:02:43;;;;;;;0.30;0.30;;;27.10;57.30;;;27.37;42.38;94978.63;5033147;28;20215;-78
2022/07/29 10:05:26;;;;;;;0.30;0.30;;;27.10;57.10;;;27.50;41.99;94982.47;5016890;28;20707;-77
2022/07/29 10:08:03;;;;;;;0.28;0.28;;;27.30;57.40;;;27.58;41.34;94981.78;5033294;28;20221;-78
2022/07/29 10:10:34;;;;;;;0.30;0.30;;;27.40;56.70;;;27.72;41.96;94978.28;5033002;28;20219;-77
2022/07/29 10:13:05;;;;;;;0.30;0.30;;;27.50;56.60;;;27.88;41.69;94981.47;5033441;28;20204;-77
2022/07/29 10:15:44;;;;;;;0.20;0.20;;;27.70;56.90;;;28.04;41.83;94974.69;5033754;28;20245;-78
2022/07/29 10:18:14;;;;;;;0.20;0.20;;;27.80;56.70;;;28.20;41.83;94966.31;5000518;28;20307;-78
2022/07/29 10:20:41;;;;;;;0.22;0.22;;;28.00;56.50;;;28.36;41.29;94972.94;5016333;28;20217;-78
2022/07/29 10:23:09;;;;;;;0.25;0.25;;;28.10;56.10;;;28.48;41.21;94963.50;5016435;28;20217;-79
2022/07/29 10:25:36;;;;;;;0.30;0.30;;;28.30;56.10;;;28.62;41.15;94972.38;5032660;28;20227;-78
2022/07/29 10:28:06;;;;;;;0.30;0.30;;;28.40;55.80;;;28.67;40.53;94969.53;5016490;28;20191;-78
2022/07/29 10:30:33;;;;;;;0.30;0.30;;;28.50;56.80;;;28.85;40.41;94978.59;5016076;28;20280;-78
2022/07/29 10:33:37;;;;;;;0.30;0.30;;;28.70;55.20;;;28.94;40.38;94972.47;5032626;28;20200;-77
2022/07/29 10:36:19;;;;;;;0.40;0.40;;;28.80;55.00;;;29.00;39.94;94971.22;5032478;28;20223;-78
2022/07/29 10:39:39;;;;;;;0.30;0.30;;;28.90;54.60;;;29.02;40.09;94971.72;5034036;28;20190;-78
2022/07/29 10:42:21;;;;;;;0.28;0.28;;;28.90;54.70;;;29.12;40.29;94967.97;5032412;28;20222;-78
2022/07/29 10:45:02;;;;;;;0.30;0.30;;;29.10;54.20;;;29.19;40.37;94966.41;5017608;28;20210;-78